createdAt,value
2022-08-26T00:01:56.797Z,21.50
2022-08-26T00:04:25.779Z,21.50
2022-08-26T00:06:57.238Z,21.50
2022-08-26T00:09:25.383Z,21.50
2022-08-26T00:11:54.407Z,21.40
2022-08-26T00:14:27.017Z,21.40
2022-08-26T00:16:57.007Z,21.30
2022-08-26T00:19:25.172Z,21.30
2022-08-26T00:21:53.488Z,21.20
2022-08-26T00:24:21.880Z,21.20
2022-08-26T00:26:50.081Z,21.20
2022-08-26T00:29:19.531Z,21.20
2022-08-26T00:31:48.780Z,21.20
2022-08-26T00:34:19.294Z,21.20
2022-08-26T00:36:47.493Z,21.20
2022-08-26T00:39:16.807Z,21.20
2022-08-26T00:41:44.149Z,21.20
2022-08-26T00:44:12.251Z,21.10
2022-08-26T00:46:46.372Z,21.10
2022-08-26T00:49:24.658Z,21.10
2022-08-26T00:51:55.311Z,21.00
2022-08-26T00:54:27.404Z,21.00
2022-08-26T00:57:02.631Z,21.00
2022-08-26T00:59:33.263Z,20.90
2022-08-26T01:02:02.697Z,20.90
2022-08-26T01:04:33.608Z,20.80
2022-08-26T01:07:01.601Z,20.80
2022-08-26T01:09:30.967Z,20.90
2022-08-26T01:12:01.340Z,20.90
2022-08-26T01:14:32.850Z,20.90
2022-08-26T01:17:05.024Z,20.80
2022-08-26T01:19:40.626Z,20.80
2022-08-26T01:22:26.618Z,20.80
2022-08-26T01:24:56.930Z,20.70
2022-08-26T01:27:27.441Z,20.70
2022-08-26T01:30:01.854Z,20.70
2022-08-26T01:32:33.105Z,20.70
2022-08-26T01:35:01.570Z,20.60
2022-08-26T01:37:34.976Z,20.70
2022-08-26T01:40:04.314Z,20.60
2022-08-26T01:42:31.783Z,20.60
2022-08-26T01:45:07.213Z,20.60
2022-08-26T01:47:36.581Z,20.60
2022-08-26T01:50:11.159Z,20.60
2022-08-26T01:52:42.714Z,20.60
2022-08-26T01:55:13.668Z,20.60
2022-08-26T01:57:57.493Z,20.60
2022-08-26T02:00:26.668Z,20.50
2022-08-26T02:03:16.491Z,20.50
2022-08-26T02:06:00.010Z,20.50
2022-08-26T02:08:42.133Z,20.50
2022-08-26T02:11:09.859Z,20.50
2022-08-26T02:13:55.635Z,20.50
2022-08-26T02:16:26.200Z,20.40
2022-08-26T02:18:55.313Z,20.40
2022-08-26T02:21:24.941Z,20.30
2022-08-26T02:23:53.086Z,20.30
2022-08-26T02:26:27.098Z,20.30
2022-08-26T02:29:02.685Z,20.30
2022-08-26T02:31:30.133Z,20.30
2022-08-26T02:34:08.459Z,20.30
2022-08-26T02:36:38.183Z,20.30
2022-08-26T02:39:07.344Z,20.30
2022-08-26T02:41:35.042Z,20.20
2022-08-26T02:44:11.734Z,20.20
2022-08-26T02:46:39.852Z,20.20
2022-08-26T02:49:07.578Z,20.20
2022-08-26T02:51:34.843Z,20.20
2022-08-26T02:54:02.320Z,20.20
2022-08-26T02:56:29.639Z,20.10
2022-08-26T02:58:57.158Z,20.10
2022-08-26T03:01:32.492Z,20.10
2022-08-26T03:04:02.139Z,20.00
2022-08-26T03:06:29.958Z,20.00
2022-08-26T03:08:57.249Z,20.00
2022-08-26T03:11:29.629Z,20.00
2022-08-26T03:14:00.714Z,20.00
2022-08-26T03:16:37.748Z,20.00
2022-08-26T03:19:07.772Z,19.90
2022-08-26T03:21:36.965Z,19.90
2022-08-26T03:24:05.566Z,19.90
2022-08-26T03:26:32.858Z,19.90
2022-08-26T03:29:19.046Z,19.80
2022-08-26T03:31:46.989Z,19.80
2022-08-26T03:34:15.048Z,19.70
2022-08-26T03:36:42.530Z,19.60
2022-08-26T03:39:11.281Z,19.60
2022-08-26T03:41:38.867Z,19.60
2022-08-26T03:44:08.941Z,19.60
2022-08-26T03:46:37.280Z,19.60
2022-08-26T03:49:06.164Z,19.50
2022-08-26T03:51:34.928Z,19.50
2022-08-26T03:54:08.374Z,19.50
2022-08-26T03:56:36.760Z,19.40
2022-08-26T03:59:05.116Z,19.40
2022-08-26T04:01:35.386Z,19.40
2022-08-26T04:04:03.336Z,19.30
2022-08-26T04:06:43.092Z,19.30
2022-08-26T04:09:19.480Z,19.30
2022-08-26T04:11:50.545Z,19.40
2022-08-26T04:14:21.885Z,19.30
2022-08-26T04:16:50.158Z,19.40
2022-08-26T04:19:19.301Z,19.40
2022-08-26T04:21:49.117Z,19.40
2022-08-26T04:24:17.636Z,19.40
2022-08-26T04:26:45.283Z,19.40
2022-08-26T04:29:16.123Z,19.40
2022-08-26T04:31:44.229Z,19.40
2022-08-26T04:34:11.957Z,19.40
2022-08-26T04:36:41.979Z,19.50
2022-08-26T04:39:12.446Z,19.50
2022-08-26T04:41:40.144Z,19.60
2022-08-26T04:44:07.895Z,19.60
2022-08-26T04:46:35.798Z,19.60
2022-08-26T04:49:08.632Z,19.60
2022-08-26T04:51:36.676Z,19.60
2022-08-26T04:54:07.114Z,19.70
2022-08-26T04:56:37.621Z,19.70
2022-08-26T04:59:08.120Z,19.80
2022-08-26T05:01:46.715Z,19.90
2022-08-26T05:04:18.783Z,19.90
2022-08-26T05:06:47.799Z,20.00
2022-08-26T05:09:15.427Z,20.10
2022-08-26T05:11:42.947Z,20.10
2022-08-26T05:14:10.348Z,20.10
2022-08-26T05:16:40.432Z,20.10
2022-08-26T05:19:08.536Z,20.20
2022-08-26T05:21:36.698Z,20.20
2022-08-26T05:24:04.809Z,20.30
2022-08-26T05:26:32.961Z,20.40
2022-08-26T05:29:01.567Z,20.40
2022-08-26T05:31:31.975Z,20.50
2022-08-26T05:34:03.651Z,20.60
2022-08-26T05:36:34.872Z,20.60
2022-08-26T05:39:04.362Z,20.70
2022-08-26T05:41:36.631Z,20.70
2022-08-26T05:44:09.421Z,20.80
2022-08-26T05:46:37.952Z,20.80
2022-08-26T05:49:06.166Z,20.90
2022-08-26T05:51:46.602Z,20.90
2022-08-26T05:54:21.986Z,21.00
2022-08-26T05:56:52.645Z,21.10
2022-08-26T05:59:24.162Z,21.20
2022-08-26T06:01:52.965Z,21.20
2022-08-26T06:04:20.386Z,21.20
2022-08-26T06:06:47.934Z,21.30
2022-08-26T06:09:18.195Z,21.30
2022-08-26T06:11:45.632Z,21.40
2022-08-26T06:14:12.994Z,21.50
2022-08-26T06:16:44.442Z,21.60
2022-08-26T06:19:15.674Z,21.70
2022-08-26T06:21:46.572Z,21.70
2022-08-26T06:24:33.757Z,21.80
2022-08-26T06:27:04.374Z,21.90
2022-08-26T06:29:34.620Z,22.10
2022-08-26T06:32:03.955Z,22.10
2022-08-26T06:34:31.232Z,22.20
2022-08-26T06:37:02.787Z,22.30
2022-08-26T06:39:32.118Z,22.40
2022-08-26T06:42:00.421Z,22.50
2022-08-26T06:44:28.130Z,22.50
2022-08-26T06:46:55.702Z,22.40
2022-08-26T06:49:26.828Z,22.50
2022-08-26T06:51:58.515Z,22.50
2022-08-26T06:54:27.478Z,22.50
2022-08-26T06:56:57.040Z,22.50
2022-08-26T06:59:25.188Z,22.60
2022-08-26T07:01:53.312Z,22.60
2022-08-26T07:04:23.270Z,22.80
2022-08-26T07:06:53.580Z,22.80
2022-08-26T07:09:26.853Z,22.80
2022-08-26T07:11:56.458Z,22.90
2022-08-26T07:14:26.234Z,23.00
2022-08-26T07:16:53.894Z,23.10
2022-08-26T07:19:30.996Z,23.20
2022-08-26T07:22:04.842Z,23.20
2022-08-26T07:24:37.749Z,23.20
2022-08-26T07:27:08.801Z,23.30
2022-08-26T07:29:37.539Z,23.30
2022-08-26T07:32:05.428Z,23.30
2022-08-26T07:34:33.328Z,23.30
2022-08-26T07:37:01.388Z,23.40
2022-08-26T07:39:31.500Z,23.40
2022-08-26T07:42:01.468Z,23.40
2022-08-26T07:44:35.440Z,23.50
2022-08-26T07:47:02.817Z,23.50
2022-08-26T07:49:38.305Z,23.60
2022-08-26T07:52:06.726Z,23.70
2022-08-26T07:54:33.963Z,23.80
2022-08-26T07:57:01.725Z,23.90
2022-08-26T07:59:36.638Z,24.00
2022-08-26T08:02:03.941Z,24.20
2022-08-26T08:04:31.227Z,24.20
2022-08-26T08:06:58.600Z,24.40
2022-08-26T08:09:26.208Z,24.50
2022-08-26T08:11:54.808Z,24.60
2022-08-26T08:14:22.409Z,24.90
2022-08-26T08:16:51.208Z,24.90
2022-08-26T08:19:22.140Z,24.90
2022-08-26T08:21:49.368Z,25.00
2022-08-26T08:24:16.687Z,25.30
2022-08-26T08:26:44.028Z,25.40
2022-08-26T08:29:12.695Z,25.40
2022-08-26T08:31:57.962Z,25.50
2022-08-26T08:34:28.711Z,25.70
2022-08-26T08:36:57.485Z,25.90
2022-08-26T08:39:25.744Z,26.10
2022-08-26T08:42:13.917Z,26.40
2022-08-26T08:44:44.453Z,26.50
2022-08-26T08:47:35.592Z,26.60
2022-08-26T08:50:24.656Z,26.70
2022-08-26T08:53:17.587Z,26.70
2022-08-26T08:56:08.054Z,26.60
2022-08-26T08:58:50.048Z,26.80
2022-08-26T09:01:42.222Z,26.60
2022-08-26T09:04:27.718Z,26.80
2022-08-26T09:09:38.612Z,27.40
2022-08-26T09:12:12.825Z,27.70
2022-08-26T09:14:40.763Z,27.90
2022-08-26T09:17:39.048Z,28.10
2022-08-26T09:20:14.273Z,28.20
2022-08-26T09:22:44.201Z,28.20
2022-08-26T09:25:14.540Z,28.50
2022-08-26T09:27:46.322Z,28.50
2022-08-26T09:30:30.746Z,28.50
2022-08-26T09:33:11.087Z,28.50
2022-08-26T09:35:41.229Z,28.60
2022-08-26T09:38:26.582Z,29.00
2022-08-26T09:41:05.866Z,29.40
2022-08-26T09:43:34.597Z,29.70
2022-08-26T09:46:18.530Z,30.00
2022-08-26T09:48:45.867Z,30.10
2022-08-26T09:51:23.294Z,30.20
2022-08-26T09:53:57.006Z,30.30
2022-08-26T09:56:26.004Z,30.20
2022-08-26T09:58:56.810Z,30.30
2022-08-26T10:01:24.039Z,30.50
2022-08-26T10:03:51.986Z,30.60
2022-08-26T10:06:20.932Z,30.50
2022-08-26T10:08:59.998Z,30.40
2022-08-26T10:11:48.974Z,30.30
2022-08-26T10:14:31.874Z,30.00
2022-08-26T10:17:06.862Z,30.10
2022-08-26T10:19:58.775Z,30.20
2022-08-26T10:22:45.759Z,30.00
2022-08-26T10:25:17.535Z,29.90
2022-08-26T10:27:55.005Z,30.00
2022-08-26T10:30:27.720Z,30.00
2022-08-26T10:33:07.418Z,30.10
2022-08-26T10:35:40.268Z,30.20
2022-08-26T10:38:15.930Z,30.20
2022-08-26T10:41:24.345Z,30.30
2022-08-26T10:44:03.314Z,30.70
2022-08-26T10:46:54.522Z,30.60
2022-08-26T10:49:21.809Z,30.40
2022-08-26T10:52:12.273Z,30.50
2022-08-26T10:54:55.362Z,30.20
2022-08-26T10:57:50.541Z,30.00
2022-08-26T11:00:43.906Z,29.50
2022-08-26T11:03:42.586Z,29.70
2022-08-26T11:06:18.641Z,30.00
2022-08-26T11:08:57.308Z,30.10
2022-08-26T11:11:42.533Z,30.40
2022-08-26T11:14:29.048Z,30.40
2022-08-26T11:16:59.828Z,30.50
2022-08-26T11:19:59.006Z,31.10
2022-08-26T11:22:47.592Z,31.90
2022-08-26T11:25:20.806Z,32.50
2022-08-26T11:27:54.523Z,33.00
2022-08-26T11:30:24.087Z,33.70
2022-08-26T11:32:57.373Z,34.20
2022-08-26T11:35:24.696Z,34.30
2022-08-26T11:37:58.421Z,34.50
2022-08-26T11:40:29.207Z,34.90
2022-08-26T11:42:59.777Z,34.60
2022-08-26T11:45:39.755Z,34.30
2022-08-26T11:48:16.779Z,34.40
2022-08-26T11:51:05.926Z,34.70
2022-08-26T11:53:37.308Z,34.30
2022-08-26T11:56:10.553Z,34.40
2022-08-26T11:58:44.438Z,34.30
2022-08-26T12:01:21.550Z,34.80
2022-08-26T12:03:52.430Z,35.30
2022-08-26T12:06:30.890Z,35.10
2022-08-26T12:09:05.526Z,35.60
2022-08-26T12:11:35.833Z,36.40
2022-08-26T12:14:07.561Z,36.30
2022-08-26T12:16:40.271Z,36.80
2022-08-26T12:19:34.255Z,37.10
2022-08-26T12:22:25.556Z,36.90
2022-08-26T12:24:55.551Z,37.10
2022-08-26T12:27:31.907Z,37.00
2022-08-26T12:30:13.872Z,37.30
2022-08-26T12:32:57.593Z,37.90
2022-08-26T12:35:28.967Z,37.20
2022-08-26T12:37:57.838Z,36.70
2022-08-26T12:40:30.936Z,36.30
2022-08-26T12:43:01.978Z,35.60
2022-08-26T12:45:37.121Z,35.90
2022-08-26T12:48:13.726Z,36.30
2022-08-26T12:50:48.055Z,36.70
2022-08-26T12:53:24.057Z,36.30
2022-08-26T12:56:00.478Z,35.80
2022-08-26T12:58:30.148Z,35.50
2022-08-26T13:01:04.616Z,35.20
2022-08-26T13:03:34.823Z,34.70
2022-08-26T13:06:17.222Z,34.40
2022-08-26T13:08:51.542Z,34.20
2022-08-26T13:11:21.093Z,34.00
2022-08-26T13:13:53.653Z,33.70
2022-08-26T13:16:23.267Z,33.80
2022-08-26T13:18:53.476Z,34.40
2022-08-26T13:21:24.182Z,35.50
2022-08-26T13:23:52.339Z,36.60
2022-08-26T13:26:20.298Z,37.50
2022-08-26T13:28:53.281Z,38.00
2022-08-26T13:31:31.304Z,37.90
2022-08-26T13:33:58.859Z,37.90
2022-08-26T13:36:27.045Z,37.80
2022-08-26T13:38:54.274Z,37.70
2022-08-26T13:41:29.115Z,37.00
2022-08-26T13:43:58.894Z,36.20
2022-08-26T13:46:28.523Z,35.20
2022-08-26T13:48:57.437Z,34.50
2022-08-26T13:51:27.130Z,33.40
2022-08-26T13:53:55.074Z,32.60
2022-08-26T13:56:23.064Z,31.80
2022-08-26T13:58:50.304Z,30.80
2022-08-26T14:01:17.662Z,29.70
2022-08-26T14:03:46.221Z,28.90
2022-08-26T14:06:13.973Z,27.80
2022-08-26T14:08:42.267Z,26.60
2022-08-26T14:11:10.028Z,26.00
2022-08-26T14:13:37.298Z,25.30
2022-08-26T14:16:13.382Z,24.70
2022-08-26T14:18:44.327Z,24.40
2022-08-26T14:21:14.269Z,24.30
2022-08-26T14:23:41.750Z,23.90
2022-08-26T14:26:14.329Z,23.10
2022-08-26T14:28:56.584Z,22.60
2022-08-26T14:31:24.301Z,21.80
2022-08-26T14:33:51.659Z,21.10
2022-08-26T14:36:34.119Z,20.90
2022-08-26T14:39:11.058Z,20.80
2022-08-26T14:41:55.180Z,20.60
2022-08-26T14:44:27.121Z,20.50
2022-08-26T14:46:54.791Z,20.40
2022-08-26T14:49:23.610Z,20.10
2022-08-26T14:51:50.925Z,19.80
2022-08-26T14:54:19.466Z,19.80
2022-08-26T14:56:56.024Z,19.70
2022-08-26T14:59:33.086Z,19.80
2022-08-26T15:02:01.015Z,19.90
2022-08-26T15:04:28.995Z,20.10
2022-08-26T15:06:59.050Z,20.10
2022-08-26T15:09:28.080Z,20.20
2022-08-26T15:11:55.621Z,20.20
2022-08-26T15:14:23.973Z,20.30
2022-08-26T15:16:54.048Z,20.30
2022-08-26T15:19:22.710Z,20.30
2022-08-26T15:21:51.075Z,20.20
2022-08-26T15:24:21.183Z,20.30
2022-08-26T15:26:49.605Z,20.10
2022-08-26T15:29:17.436Z,19.90
2022-08-26T15:31:44.736Z,19.80
2022-08-26T15:34:16.434Z,19.80
2022-08-26T15:36:46.452Z,19.80
2022-08-26T15:39:15.756Z,19.90
2022-08-26T15:41:43.452Z,20.00
2022-08-26T15:44:11.690Z,20.00
2022-08-26T15:46:39.922Z,20.10
2022-08-26T15:49:07.605Z,20.10
2022-08-26T15:51:45.533Z,20.10
2022-08-26T15:54:14.509Z,20.20
2022-08-26T15:56:43.440Z,20.20
2022-08-26T15:59:11.851Z,20.20
2022-08-26T16:01:40.047Z,20.30
2022-08-26T16:04:07.676Z,20.40
2022-08-26T16:06:37.417Z,20.50
2022-08-26T16:09:06.380Z,20.60
2022-08-26T16:11:36.059Z,20.60
2022-08-26T16:14:04.777Z,20.70
2022-08-26T16:16:32.496Z,20.70
2022-08-26T16:19:02.270Z,20.70
2022-08-26T16:21:32.923Z,20.70
2022-08-26T16:24:00.192Z,20.70
2022-08-26T16:26:32.506Z,20.80
2022-08-26T16:29:02.084Z,20.70
2022-08-26T16:31:29.525Z,20.80
2022-08-26T16:33:56.879Z,20.70
2022-08-26T16:36:24.393Z,20.70
2022-08-26T16:38:55.740Z,20.70
2022-08-26T16:41:25.123Z,20.60
2022-08-26T16:43:53.122Z,20.60
2022-08-26T16:46:22.305Z,20.50
2022-08-26T16:48:50.116Z,20.50
2022-08-26T16:51:19.649Z,20.40
2022-08-26T16:53:47.591Z,20.40
2022-08-26T16:56:16.701Z,20.50
2022-08-26T16:58:44.317Z,20.50
2022-08-26T17:01:11.600Z,20.50
2022-08-26T17:03:38.942Z,20.50
2022-08-26T17:06:06.486Z,20.50
2022-08-26T17:08:33.855Z,20.50
2022-08-26T17:11:01.535Z,20.50
2022-08-26T17:13:35.904Z,20.50
2022-08-26T17:16:06.084Z,20.60
2022-08-26T17:18:34.226Z,20.60
2022-08-26T17:21:04.397Z,20.60
2022-08-26T17:23:31.833Z,20.60
2022-08-26T17:25:59.383Z,20.50
2022-08-26T17:28:26.790Z,20.50
2022-08-26T17:30:57.335Z,20.40
2022-08-26T17:33:25.407Z,20.30
2022-08-26T17:35:53.351Z,20.20
2022-08-26T17:38:21.353Z,20.20
2022-08-26T17:40:52.084Z,20.20
2022-08-26T17:43:19.784Z,20.10
2022-08-26T17:45:47.189Z,20.00
2022-08-26T17:48:14.506Z,20.00
2022-08-26T17:50:42.842Z,19.90
2022-08-26T17:53:12.708Z,19.80
2022-08-26T17:55:47.099Z,19.80
2022-08-26T17:58:17.784Z,19.80
2022-08-26T18:00:48.006Z,19.90
2022-08-26T18:03:16.384Z,19.90
2022-08-26T18:05:48.226Z,19.90
2022-08-26T18:08:15.739Z,19.90
2022-08-26T18:10:44.090Z,19.90
2022-08-26T18:13:11.989Z,19.80
2022-08-26T18:15:40.340Z,19.80
2022-08-26T18:18:07.921Z,19.80
2022-08-26T18:20:37.287Z,19.80
2022-08-26T18:23:05.080Z,19.80
2022-08-26T18:25:32.313Z,19.70
2022-08-26T18:27:59.941Z,19.70
2022-08-26T18:30:27.278Z,19.80
2022-08-26T18:32:54.512Z,19.70
2022-08-26T18:35:21.735Z,19.80
2022-08-26T18:37:49.009Z,19.80
2022-08-26T18:40:17.606Z,19.70
2022-08-26T18:42:45.174Z,19.80
2022-08-26T18:45:17.732Z,19.80
2022-08-26T18:47:45.043Z,19.90
2022-08-26T18:50:12.604Z,19.90
2022-08-26T18:52:40.378Z,20.00
2022-08-26T18:55:08.434Z,20.10
2022-08-26T18:57:35.719Z,20.10
2022-08-26T19:00:06.018Z,20.10
2022-08-26T19:02:34.485Z,20.10
2022-08-26T19:05:02.013Z,20.20
2022-08-26T19:07:29.345Z,20.10
2022-08-26T19:09:56.586Z,20.20
2022-08-26T19:12:24.023Z,20.20
2022-08-26T19:14:54.212Z,20.20
2022-08-26T19:17:22.661Z,20.20
2022-08-26T19:19:50.022Z,20.10
2022-08-26T19:22:17.245Z,20.20
2022-08-26T19:24:44.517Z,20.20
2022-08-26T19:27:14.916Z,20.20
2022-08-26T19:29:42.383Z,20.20
2022-08-26T19:32:09.753Z,20.20
2022-08-26T19:34:37.146Z,20.10
2022-08-26T19:37:04.667Z,20.10
2022-08-26T19:39:31.953Z,20.10
2022-08-26T19:42:00.441Z,20.10
2022-08-26T19:44:46.471Z,20.10
2022-08-26T19:47:14.164Z,20.10
2022-08-26T19:49:41.421Z,20.10
2022-08-26T19:52:09.086Z,20.00
2022-08-26T19:54:37.141Z,20.00
2022-08-26T19:57:05.410Z,20.00
2022-08-26T19:59:33.252Z,19.90
2022-08-26T20:02:01.610Z,19.90
2022-08-26T20:04:30.997Z,19.90
2022-08-26T20:07:00.710Z,19.80
2022-08-26T20:09:29.849Z,19.80
2022-08-26T20:11:57.222Z,19.80
2022-08-26T20:14:26.256Z,19.80
2022-08-26T20:16:53.984Z,19.70
2022-08-26T20:19:40.367Z,19.80
2022-08-26T20:22:08.217Z,19.70
2022-08-26T20:24:36.008Z,19.80
2022-08-26T20:27:07.693Z,19.80
2022-08-26T20:29:35.747Z,19.80
2022-08-26T20:32:06.100Z,19.80
2022-08-26T20:34:34.276Z,19.80
2022-08-26T20:37:01.790Z,19.80
2022-08-26T20:39:29.916Z,19.80
2022-08-26T20:41:58.220Z,19.50
2022-08-26T20:44:26.462Z,19.50
2022-08-26T20:46:53.761Z,19.40
2022-08-26T20:49:21.197Z,19.40
2022-08-26T20:51:52.543Z,19.40
2022-08-26T20:54:25.108Z,19.30
2022-08-26T20:56:56.716Z,19.30
2022-08-26T20:59:24.626Z,19.30
2022-08-26T21:01:51.995Z,19.20
2022-08-26T21:04:22.114Z,19.30
2022-08-26T21:06:52.939Z,19.30
2022-08-26T21:09:23.318Z,19.20
2022-08-26T21:11:51.370Z,19.20
2022-08-26T21:14:20.615Z,19.20
2022-08-26T21:16:48.019Z,19.20
2022-08-26T21:19:18.232Z,19.20
2022-08-26T21:21:47.603Z,19.20
2022-08-26T21:24:15.561Z,19.20
2022-08-26T21:26:43.100Z,19.20
2022-08-26T21:29:10.395Z,19.20
2022-08-26T21:31:43.573Z,19.10
2022-08-26T21:34:13.464Z,19.10
2022-08-26T21:36:40.749Z,19.20
2022-08-26T21:39:11.716Z,19.10
2022-08-26T21:41:40.661Z,19.10
2022-08-26T21:44:08.906Z,19.10
2022-08-26T21:46:37.455Z,19.00
2022-08-26T21:49:07.625Z,19.10
2022-08-26T21:51:37.847Z,19.00
2022-08-26T21:54:10.773Z,19.10
2022-08-26T21:56:42.216Z,19.10
2022-08-26T21:59:09.888Z,19.10
2022-08-26T22:01:38.100Z,19.00
2022-08-26T22:04:07.658Z,19.00
2022-08-26T22:06:39.867Z,19.00
2022-08-26T22:09:07.117Z,18.90
2022-08-26T22:11:34.435Z,18.80
2022-08-26T22:14:01.809Z,18.80
2022-08-26T22:16:29.106Z,18.80
2022-08-26T22:18:56.649Z,18.80
2022-08-26T22:21:27.040Z,18.70
2022-08-26T22:23:57.933Z,18.70
2022-08-26T22:26:29.398Z,18.70
2022-08-26T22:28:58.963Z,18.70
2022-08-26T22:31:37.875Z,18.70
2022-08-26T22:34:08.820Z,18.70
2022-08-26T22:36:43.050Z,18.60
2022-08-26T22:39:17.737Z,18.60
2022-08-26T22:41:48.852Z,18.60
2022-08-26T22:44:17.558Z,18.60
2022-08-26T22:46:45.893Z,18.60
2022-08-26T22:49:16.584Z,18.60
2022-08-26T22:51:47.452Z,18.70
2022-08-26T22:54:15.823Z,18.70
2022-08-26T22:56:44.836Z,18.70
2022-08-26T22:59:13.184Z,18.70
2022-08-26T23:01:43.075Z,18.70
2022-08-26T23:04:11.185Z,18.70
2022-08-26T23:06:41.341Z,18.70
2022-08-26T23:09:09.180Z,18.60
2022-08-26T23:11:39.920Z,18.60
2022-08-26T23:14:09.761Z,18.60
2022-08-26T23:16:40.116Z,18.60
2022-08-26T23:19:09.811Z,18.60
2022-08-26T23:21:37.879Z,18.60
2022-08-26T23:24:06.298Z,18.60
2022-08-26T23:26:34.924Z,18.60
2022-08-26T23:29:05.092Z,18.60
2022-08-26T23:31:32.814Z,18.60
2022-08-26T23:34:18.762Z,18.50
2022-08-26T23:36:46.982Z,18.50
2022-08-26T23:39:14.854Z,18.60
2022-08-26T23:41:42.789Z,18.60
2022-08-26T23:44:10.137Z,18.60
2022-08-26T23:46:37.402Z,18.70
2022-08-26T23:49:05.079Z,18.70
2022-08-26T23:51:50.943Z,18.70
2022-08-26T23:54:19.606Z,18.70
2022-08-26T23:56:46.915Z,18.60
2022-08-26T23:59:14.337Z,18.60
